sensor_id;sensor_type;location;lat;lon;timestamp;pressure;altitude;pressure_sealevel;temperature;humidity
47761;BME280;33524;55.434;38.520;2022-09-09T00:00:49;100976.06;;;4.30;90.62
47761;BME280;33524;55.434;38.520;2022-09-09T00:03:26;100974.25;;;4.32;90.63
47761;BME280;33524;55.434;38.520;2022-09-09T00:08:38;100974.41;;;4.27;90.96
47761;BME280;33524;55.434;38.520;2022-09-09T00:11:12;100981.09;;;4.34;90.87
47761;BME280;33524;55.434;38.520;2022-09-09T00:13:46;100980.59;;;4.24;90.82
47761;BME280;33524;55.434;38.520;2022-09-09T00:16:25;100982.13;;;4.30;90.76
47761;BME280;33524;55.434;38.520;2022-09-09T00:22:14;100988.97;;;4.33;90.93
47761;BME280;33524;55.434;38.520;2022-09-09T00:24:46;100990.84;;;4.29;91.06
47761;BME280;33524;55.434;38.520;2022-09-09T00:27:25;100988.12;;;4.32;91.01
47761;BME280;33524;55.434;38.520;2022-09-09T00:30:12;100992.00;;;4.44;90.48
47761;BME280;33524;55.434;38.520;2022-09-09T00:32:41;100991.66;;;4.30;90.84
47761;BME280;33524;55.434;38.520;2022-09-09T00:37:37;100999.47;;;4.30;90.72
47761;BME280;33524;55.434;38.520;2022-09-09T00:40:18;100992.69;;;4.25;90.94
47761;BME280;33524;55.434;38.520;2022-09-09T00:45:37;101001.28;;;4.28;90.87
47761;BME280;33524;55.434;38.520;2022-09-09T00:48:11;101007.59;;;4.22;91.09
47761;BME280;33524;55.434;38.520;2022-09-09T00:51:09;101003.09;;;4.25;91.00
47761;BME280;33524;55.434;38.520;2022-09-09T00:56:19;101004.81;;;4.27;91.08
47761;BME280;33524;55.434;38.520;2022-09-09T00:59:04;101004.81;;;4.27;90.85
47761;BME280;33524;55.434;38.520;2022-09-09T01:01:36;101009.22;;;4.24;90.83
47761;BME280;33524;55.434;38.520;2022-09-09T01:04:14;101009.91;;;4.30;90.73
47761;BME280;33524;55.434;38.520;2022-09-09T01:06:45;101010.13;;;4.23;90.96
47761;BME280;33524;55.434;38.520;2022-09-09T01:09:27;101004.13;;;4.21;90.87
47761;BME280;33524;55.434;38.520;2022-09-09T01:12:12;101018.72;;;4.25;90.77
47761;BME280;33524;55.434;38.520;2022-09-09T01:14:48;101015.00;;;4.33;90.56
47761;BME280;33524;55.434;38.520;2022-09-09T01:17:21;101012.69;;;4.25;90.57
47761;BME280;33524;55.434;38.520;2022-09-09T01:22:50;101016.81;;;4.31;90.43
47761;BME280;33524;55.434;38.520;2022-09-09T01:28:33;101019.47;;;4.29;90.60
47761;BME280;33524;55.434;38.520;2022-09-09T01:31:06;101030.84;;;4.27;90.74
47761;BME280;33524;55.434;38.520;2022-09-09T01:33:36;101030.72;;;4.30;90.64
47761;BME280;33524;55.434;38.520;2022-09-09T01:36:09;101030.63;;;4.33;90.35
47761;BME280;33524;55.434;38.520;2022-09-09T01:38:40;101035.09;;;4.29;90.65
47761;BME280;33524;55.434;38.520;2022-09-09T01:41:08;101033.41;;;4.28;90.77
47761;BME280;33524;55.434;38.520;2022-09-09T01:43:37;101035.16;;;4.28;90.83
47761;BME280;33524;55.434;38.520;2022-09-09T01:46:05;101036.06;;;4.27;90.98
47761;BME280;33524;55.434;38.520;2022-09-09T01:48:35;101045.84;;;4.20;91.00
47761;BME280;33524;55.434;38.520;2022-09-09T01:51:04;101043.09;;;4.24;91.08
47761;BME280;33524;55.434;38.520;2022-09-09T01:53:32;101050.78;;;4.28;90.82
47761;BME280;33524;55.434;38.520;2022-09-09T02:01:38;101052.69;;;4.22;90.95
47761;BME280;33524;55.434;38.520;2022-09-09T02:04:36;101048.50;;;4.18;91.19
47761;BME280;33524;55.434;38.520;2022-09-09T02:07:39;101049.97;;;4.25;91.18
47761;BME280;33524;55.434;38.520;2022-09-09T02:10:17;101052.66;;;4.24;91.31
47761;BME280;33524;55.434;38.520;2022-09-09T02:13:02;101053.59;;;4.21;91.46
47761;BME280;33524;55.434;38.520;2022-09-09T02:15:39;101057.13;;;4.20;91.59
47761;BME280;33524;55.434;38.520;2022-09-09T02:18:12;101058.09;;;4.18;91.59
47761;BME280;33524;55.434;38.520;2022-09-09T02:20:45;101059.72;;;4.20;91.60
47761;BME280;33524;55.434;38.520;2022-09-09T02:23:14;101059.72;;;4.20;91.52
47761;BME280;33524;55.434;38.520;2022-09-09T02:25:44;101062.19;;;4.23;91.39
47761;BME280;33524;55.434;38.520;2022-09-09T02:28:15;101060.59;;;4.19;91.61
47761;BME280;33524;55.434;38.520;2022-09-09T02:30:45;101067.53;;;4.20;91.63
47761;BME280;33524;55.434;38.520;2022-09-09T02:33:15;101075.00;;;4.30;91.23
47761;BME280;33524;55.434;38.520;2022-09-09T02:35:45;101067.63;;;4.17;91.64
47761;BME280;33524;55.434;38.520;2022-09-09T02:38:15;101071.22;;;4.13;91.57
47761;BME280;33524;55.434;38.520;2022-09-09T02:40:44;101088.66;;;4.11;91.93
47761;BME280;33524;55.434;38.520;2022-09-09T02:43:14;101082.88;;;4.03;92.37
47761;BME280;33524;55.434;38.520;2022-09-09T02:48:52;101085.00;;;3.92;93.21
47761;BME280;33524;55.434;38.520;2022-09-09T02:51:51;101085.97;;;3.89;93.28
47761;BME280;33524;55.434;38.520;2022-09-09T02:54:30;101101.06;;;3.78;93.94
47761;BME280;33524;55.434;38.520;2022-09-09T02:57:06;101103.78;;;3.75;94.30
47761;BME280;33524;55.434;38.520;2022-09-09T02:59:37;101107.81;;;3.57;94.98
47761;BME280;33524;55.434;38.520;2022-09-09T03:02:08;101102.91;;;3.48;95.44
47761;BME280;33524;55.434;38.520;2022-09-09T03:04:38;101113.59;;;3.38;96.02
47761;BME280;33524;55.434;38.520;2022-09-09T03:07:07;101113.44;;;3.43;95.82
47761;BME280;33524;55.434;38.520;2022-09-09T03:09:35;101119.09;;;3.29;96.75
47761;BME280;33524;55.434;38.520;2022-09-09T03:12:03;101122.75;;;3.22;97.17
47761;BME280;33524;55.434;38.520;2022-09-09T03:14:34;101121.16;;;3.18;97.81
47761;BME280;33524;55.434;38.520;2022-09-09T03:17:02;101121.06;;;3.21;98.20
47761;BME280;33524;55.434;38.520;2022-09-09T03:19:31;101129.63;;;3.25;97.70
47761;BME280;33524;55.434;38.520;2022-09-09T03:21:59;101129.03;;;3.16;98.01
47761;BME280;33524;55.434;38.520;2022-09-09T03:24:29;101128.47;;;3.05;98.96
47761;BME280;33524;55.434;38.520;2022-09-09T03:26:57;101125.09;;;3.01;99.46
47761;BME280;33524;55.434;38.520;2022-09-09T03:29:26;101125.78;;;3.08;99.73
47761;BME280;33524;55.434;38.520;2022-09-09T03:31:54;101129.91;;;3.15;99.64
47761;BME280;33524;55.434;38.520;2022-09-09T03:34:22;101124.91;;;3.08;99.82
47761;BME280;33524;55.434;38.520;2022-09-09T03:36:50;101127.34;;;3.14;99.62
47761;BME280;33524;55.434;38.520;2022-09-09T03:39:18;101132.53;;;3.14;99.81
47761;BME280;33524;55.434;38.520;2022-09-09T03:41:46;101128.22;;;3.14;99.67
47761;BME280;33524;55.434;38.520;2022-09-09T03:44:16;101133.34;;;3.16;99.47
47761;BME280;33524;55.434;38.520;2022-09-09T03:46:44;101145.97;;;3.28;99.03
47761;BME280;33524;55.434;38.520;2022-09-09T03:49:13;101143.00;;;3.40;99.01
47761;BME280;33524;55.434;38.520;2022-09-09T03:51:42;101151.41;;;3.49;98.38
47761;BME280;33524;55.434;38.520;2022-09-09T03:54:10;101147.62;;;3.31;98.70
47761;BME280;33524;55.434;38.520;2022-09-09T03:56:38;101132.31;;;3.21;98.81
47761;BME280;33524;55.434;38.520;2022-09-09T03:59:09;101157.00;;;3.36;98.78
47761;BME280;33524;55.434;38.520;2022-09-09T04:01:37;101154.12;;;3.46;98.16
47761;BME280;33524;55.434;38.520;2022-09-09T04:04:06;101165.25;;;3.49;98.02
47761;BME280;33524;55.434;38.520;2022-09-09T04:06:35;101159.03;;;3.55;97.78
47761;BME280;33524;55.434;38.520;2022-09-09T04:09:02;101154.91;;;3.76;96.80
47761;BME280;33524;55.434;38.520;2022-09-09T04:11:31;101161.00;;;3.75;96.92
47761;BME280;33524;55.434;38.520;2022-09-09T04:13:59;101151.03;;;3.89;95.81
47761;BME280;33524;55.434;38.520;2022-09-09T04:16:28;101162.44;;;4.12;94.00
47761;BME280;33524;55.434;38.520;2022-09-09T04:18:57;101159.03;;;4.35;93.13
47761;BME280;33524;55.434;38.520;2022-09-09T04:21:26;101161.12;;;4.23;93.90
47761;BME280;33524;55.434;38.520;2022-09-09T04:23:54;101164.56;;;4.51;91.26
47761;BME280;33524;55.434;38.520;2022-09-09T04:26:24;101162.41;;;4.87;89.88
47761;BME280;33524;55.434;38.520;2022-09-09T04:28:52;101171.63;;;4.72;90.00
47761;BME280;33524;55.434;38.520;2022-09-09T04:31:21;101169.78;;;4.51;91.28
47761;BME280;33524;55.434;38.520;2022-09-09T04:33:52;101166.22;;;4.53;90.85
47761;BME280;33524;55.434;38.520;2022-09-09T04:36:20;101158.81;;;4.66;89.88
47761;BME280;33524;55.434;38.520;2022-09-09T04:38:49;101163.81;;;4.72;89.15
47761;BME280;33524;55.434;38.520;2022-09-09T04:41:17;101167.84;;;5.28;88.71
47761;BME280;33524;55.434;38.520;2022-09-09T04:43:46;101173.75;;;5.77;85.09
47761;BME280;33524;55.434;38.520;2022-09-09T04:46:15;101175.50;;;5.55;86.67
47761;BME280;33524;55.434;38.520;2022-09-09T04:48:46;101174.28;;;5.85;84.55
47761;BME280;33524;55.434;38.520;2022-09-09T04:51:16;101177.09;;;5.59;84.56
47761;BME280;33524;55.434;38.520;2022-09-09T04:53:44;101183.13;;;6.66;83.13
47761;BME280;33524;55.434;38.520;2022-09-09T04:56:17;101178.53;;;5.88;83.67
47761;BME280;33524;55.434;38.520;2022-09-09T04:58:45;101179.69;;;6.45;85.25
47761;BME280;33524;55.434;38.520;2022-09-09T05:01:16;101184.59;;;5.89;83.50
47761;BME280;33524;55.434;38.520;2022-09-09T05:03:48;101185.78;;;6.65;83.24
47761;BME280;33524;55.434;38.520;2022-09-09T05:06:18;101186.00;;;7.19;82.40
47761;BME280;33524;55.434;38.520;2022-09-09T05:08:47;101182.72;;;7.34;79.71
47761;BME280;33524;55.434;38.520;2022-09-09T05:11:22;101178.16;;;7.93;80.59
47761;BME280;33524;55.434;38.520;2022-09-09T05:13:53;101184.12;;;8.49;76.25
47761;BME280;33524;55.434;38.520;2022-09-09T05:16:22;101194.38;;;7.27;75.30
47761;BME280;33524;55.434;38.520;2022-09-09T05:18:51;101194.16;;;7.51;78.43
47761;BME280;33524;55.434;38.520;2022-09-09T05:21:21;101194.50;;;7.05;80.17
47761;BME280;33524;55.434;38.520;2022-09-09T05:23:50;101205.03;;;7.79;76.43
47761;BME280;33524;55.434;38.520;2022-09-09T05:26:20;101202.25;;;8.00;81.81
47761;BME280;33524;55.434;38.520;2022-09-09T05:28:49;101200.06;;;8.09;80.86
47761;BME280;33524;55.434;38.520;2022-09-09T05:31:18;101195.81;;;8.07;80.20
47761;BME280;33524;55.434;38.520;2022-09-09T05:33:48;101202.38;;;9.50;75.37
47761;BME280;33524;55.434;38.520;2022-09-09T05:36:19;101197.44;;;9.13;74.86
47761;BME280;33524;55.434;38.520;2022-09-09T05:38:49;101210.59;;;8.08;77.66
47761;BME280;33524;55.434;38.520;2022-09-09T05:41:18;101203.97;;;8.88;75.63
47761;BME280;33524;55.434;38.520;2022-09-09T05:43:48;101207.09;;;8.79;69.52
47761;BME280;33524;55.434;38.520;2022-09-09T05:46:21;101203.78;;;9.08;70.00
47761;BME280;33524;55.434;38.520;2022-09-09T05:48:51;101188.72;;;10.38;73.64
47761;BME280;33524;55.434;38.520;2022-09-09T05:51:24;101213.88;;;10.42;74.27
47761;BME280;33524;55.434;38.520;2022-09-09T05:53:55;101210.81;;;9.08;73.55
47761;BME280;33524;55.434;38.520;2022-09-09T05:56:28;101207.41;;;9.22;73.81
47761;BME280;33524;55.434;38.520;2022-09-09T05:58:56;101212.87;;;11.30;70.40
47761;BME280;33524;55.434;38.520;2022-09-09T06:01:30;101218.56;;;11.80;63.14
47761;BME280;33524;55.434;38.520;2022-09-09T06:03:59;101218.34;;;11.83;70.62
47761;BME280;33524;55.434;38.520;2022-09-09T06:06:31;101216.47;;;12.13;70.38
47761;BME280;33524;55.434;38.520;2022-09-09T06:09:06;101213.00;;;13.53;65.69
47761;BME280;33524;55.434;38.520;2022-09-09T06:11:39;101221.34;;;11.50;62.11
47761;BME280;33524;55.434;38.520;2022-09-09T06:14:08;101223.44;;;12.14;67.59
47761;BME280;33524;55.434;38.520;2022-09-09T06:16:36;101222.34;;;9.69;61.15
47761;BME280;33524;55.434;38.520;2022-09-09T06:19:10;101225.78;;;9.55;62.09
47761;BME280;33524;55.434;38.520;2022-09-09T06:21:40;101227.81;;;10.12;68.92
47761;BME280;33524;55.434;38.520;2022-09-09T06:24:08;101224.25;;;10.59;71.55
47761;BME280;33524;55.434;38.520;2022-09-09T06:26:38;101226.28;;;10.54;71.73
47761;BME280;33524;55.434;38.520;2022-09-09T06:29:10;101227.44;;;9.56;62.83
47761;BME280;33524;55.434;38.520;2022-09-09T06:31:39;101229.19;;;11.08;62.99
47761;BME280;33524;55.434;38.520;2022-09-09T06:34:08;101239.28;;;10.11;61.52
47761;BME280;33524;55.434;38.520;2022-09-09T06:36:38;101233.03;;;9.98;64.53
47761;BME280;33524;55.434;38.520;2022-09-09T06:39:07;101226.91;;;13.05;68.40
47761;BME280;33524;55.434;38.520;2022-09-09T06:41:41;101233.75;;;13.21;60.26
47761;BME280;33524;55.434;38.520;2022-09-09T06:44:13;101223.53;;;14.85;62.45
47761;BME280;33524;55.434;38.520;2022-09-09T06:46:44;101235.31;;;15.37;59.29
47761;BME280;33524;55.434;38.520;2022-09-09T06:49:15;101227.31;;;12.48;50.91
47761;BME280;33524;55.434;38.520;2022-09-09T06:51:44;101237.25;;;12.17;70.94
47761;BME280;33524;55.434;38.520;2022-09-09T06:54:12;101228.91;;;12.89;69.30
47761;BME280;33524;55.434;38.520;2022-09-09T06:56:45;101233.87;;;12.68;63.14
47761;BME280;33524;55.434;38.520;2022-09-09T06:59:16;101245.75;;;10.66;52.43
47761;BME280;33524;55.434;38.520;2022-09-09T07:01:44;101241.78;;;11.03;51.29
47761;BME280;33524;55.434;38.520;2022-09-09T07:04:13;101245.09;;;9.70;53.82
47761;BME280;33524;55.434;38.520;2022-09-09T07:06:43;101239.25;;;10.87;66.38
47761;BME280;33524;55.434;38.520;2022-09-09T07:09:14;101247.88;;;11.47;59.33
47761;BME280;33524;55.434;38.520;2022-09-09T07:11:45;101244.94;;;12.60;68.46
47761;BME280;33524;55.434;38.520;2022-09-09T07:14:14;101241.06;;;12.91;64.60
47761;BME280;33524;55.434;38.520;2022-09-09T07:16:44;101247.06;;;12.55;63.83
47761;BME280;33524;55.434;38.520;2022-09-09T07:19:14;101248.31;;;10.67;57.31
47761;BME280;33524;55.434;38.520;2022-09-09T07:21:43;101259.44;;;11.30;66.72
47761;BME280;33524;55.434;38.520;2022-09-09T07:24:11;101259.34;;;11.60;70.17
47761;BME280;33524;55.434;38.520;2022-09-09T07:26:41;101240.00;;;14.66;60.66
47761;BME280;33524;55.434;38.520;2022-09-09T07:29:08;101255.81;;;15.24;54.82
47761;BME280;33524;55.434;38.520;2022-09-09T07:31:38;101257.84;;;13.03;45.63
47761;BME280;33524;55.434;38.520;2022-09-09T07:34:08;101268.53;;;11.67;48.34
47761;BME280;33524;55.434;38.520;2022-09-09T07:36:38;101272.78;;;10.07;49.24
47761;BME280;33524;55.434;38.520;2022-09-09T07:39:09;101282.03;;;9.83;51.24
47761;BME280;33524;55.434;38.520;2022-09-09T07:41:43;101274.59;;;10.53;57.17
47761;BME280;33524;55.434;38.520;2022-09-09T07:44:15;101280.16;;;9.85;50.66
47761;BME280;33524;55.434;38.520;2022-09-09T07:46:45;101277.00;;;10.10;66.66
47761;BME280;33524;55.434;38.520;2022-09-09T07:49:14;101276.38;;;11.11;53.69
47761;BME280;33524;55.434;38.520;2022-09-09T07:51:45;101269.59;;;11.07;57.99
47761;BME280;33524;55.434;38.520;2022-09-09T07:54:16;101272.81;;;11.13;59.14
47761;BME280;33524;55.434;38.520;2022-09-09T07:56:45;101281.72;;;10.51;53.51
47761;BME280;33524;55.434;38.520;2022-09-09T07:59:14;101277.41;;;10.18;55.45
47761;BME280;33524;55.434;38.520;2022-09-09T08:01:44;101278.00;;;11.14;52.22
47761;BME280;33524;55.434;38.520;2022-09-09T08:04:15;101281.13;;;12.98;51.30
47761;BME280;33524;55.434;38.520;2022-09-09T08:06:46;101261.09;;;15.12;54.61
47761;BME280;33524;55.434;38.520;2022-09-09T08:09:16;101267.47;;;15.44;49.66
47761;BME280;33524;55.434;38.520;2022-09-09T08:11:45;101270.31;;;17.04;51.50
47761;BME280;33524;55.434;38.520;2022-09-09T08:14:16;101266.16;;;17.11;52.46
47761;BME280;33524;55.434;38.520;2022-09-09T08:16:47;101269.97;;;16.34;41.49
47761;BME280;33524;55.434;38.520;2022-09-09T08:19:16;101271.47;;;15.04;46.41
47761;BME280;33524;55.434;38.520;2022-09-09T08:21:45;101288.00;;;15.76;44.60
47761;BME280;33524;55.434;38.520;2022-09-09T08:24:13;101266.38;;;17.79;42.15
47761;BME280;33524;55.434;38.520;2022-09-09T08:26:46;101276.44;;;13.15;42.02
47761;BME280;33524;55.434;38.520;2022-09-09T08:29:17;101286.78;;;14.65;48.90
47761;BME280;33524;55.434;38.520;2022-09-09T08:31:51;101286.53;;;12.57;42.99
47761;BME280;33524;55.434;38.520;2022-09-09T08:34:22;101271.37;;;14.35;58.70
47761;BME280;33524;55.434;38.520;2022-09-09T08:36:51;101282.69;;;16.72;55.69
47761;BME280;33524;55.434;38.520;2022-09-09T08:39:21;101295.19;;;14.59;44.74
47761;BME280;33524;55.434;38.520;2022-09-09T08:44:41;101295.00;;;11.08;53.00
47761;BME280;33524;55.434;38.520;2022-09-09T08:55:50;101280.63;;;15.45;49.37
47761;BME280;33524;55.434;38.520;2022-09-09T08:58:45;101289.22;;;16.15;52.11
47761;BME280;33524;55.434;38.520;2022-09-09T09:04:48;101289.28;;;14.56;56.63
47761;BME280;33524;55.434;38.520;2022-09-09T09:07:59;101286.31;;;16.71;42.83
47761;BME280;33524;55.434;38.520;2022-09-09T09:10:52;101281.53;;;14.88;39.67
47761;BME280;33524;55.434;38.520;2022-09-09T09:13:35;101280.16;;;19.01;52.39
47761;BME280;33524;55.434;38.520;2022-09-09T09:16:27;101286.25;;;14.25;38.90
47761;BME280;33524;55.434;38.520;2022-09-09T09:19:00;101278.13;;;13.41;41.53
47761;BME280;33524;55.434;38.520;2022-09-09T09:23:59;101276.16;;;18.19;41.56
47761;BME280;33524;55.434;38.520;2022-09-09T09:26:34;101270.72;;;19.44;36.32
47761;BME280;33524;55.434;38.520;2022-09-09T09:29:12;101273.19;;;18.61;41.03
47761;BME280;33524;55.434;38.520;2022-09-09T09:31:51;101275.56;;;18.93;36.90
47761;BME280;33524;55.434;38.520;2022-09-09T09:34:23;101285.06;;;15.33;37.81
47761;BME280;33524;55.434;38.520;2022-09-09T09:36:59;101288.47;;;13.19;40.24
47761;BME280;33524;55.434;38.520;2022-09-09T09:39:33;101289.31;;;12.81;41.50
47761;BME280;33524;55.434;38.520;2022-09-09T09:42:26;101291.84;;;13.21;66.49
47761;BME280;33524;55.434;38.520;2022-09-09T09:44:55;101291.37;;;14.15;65.59
47761;BME280;33524;55.434;38.520;2022-09-09T09:47:23;101290.41;;;16.43;56.02
47761;BME280;33524;55.434;38.520;2022-09-09T09:50:00;101287.81;;;16.00;36.90
47761;BME280;33524;55.434;38.520;2022-09-09T09:52:31;101285.91;;;16.55;41.58
47761;BME280;33524;55.434;38.520;2022-09-09T09:55:03;101288.94;;;15.86;50.30
47761;BME280;33524;55.434;38.520;2022-09-09T09:57:35;101298.84;;;13.47;40.46
47761;BME280;33524;55.434;38.520;2022-09-09T10:02:42;101293.56;;;14.21;44.39
47761;BME280;33524;55.434;38.520;2022-09-09T10:05:26;101297.91;;;16.17;39.10
47761;BME280;33524;55.434;38.520;2022-09-09T10:08:10;101291.31;;;16.32;45.29
47761;BME280;33524;55.434;38.520;2022-09-09T10:10:59;101283.75;;;14.59;37.97
47761;BME280;33524;55.434;38.520;2022-09-09T10:13:47;101298.94;;;15.71;38.50
47761;BME280;33524;55.434;38.520;2022-09-09T10:17:25;101291.59;;;16.18;37.78
47761;BME280;33524;55.434;38.520;2022-09-09T10:22:02;101288.69;;;13.67;38.30
47761;BME280;33524;55.434;38.520;2022-09-09T10:24:53;101298.75;;;14.82;59.63
47761;BME280;33524;55.434;38.520;2022-09-09T10:30:58;101294.66;;;13.32;41.29
47761;BME280;33524;55.434;38.520;2022-09-09T10:36:23;101290.19;;;14.19;48.32
47761;BME280;33524;55.434;38.520;2022-09-09T10:39:04;101295.97;;;13.63;39.31
47761;BME280;33524;55.434;38.520;2022-09-09T10:53:40;101306.22;;;16.45;41.69
47761;BME280;33524;55.434;38.520;2022-09-09T10:56:16;101298.44;;;15.66;37.10
47761;BME280;33524;55.434;38.520;2022-09-09T10:59:00;101297.03;;;14.46;37.14
47761;BME280;33524;55.434;38.520;2022-09-09T11:01:38;101306.88;;;12.82;40.43
47761;BME280;33524;55.434;38.520;2022-09-09T11:04:17;101301.75;;;14.78;57.01
47761;BME280;33524;55.434;38.520;2022-09-09T11:06:51;101303.94;;;13.38;39.67
47761;BME280;33524;55.434;38.520;2022-09-09T11:09:24;101301.19;;;14.61;58.21
47761;BME280;33524;55.434;38.520;2022-09-09T11:11:56;101286.41;;;16.28;41.93
47761;BME280;33524;55.434;38.520;2022-09-09T11:17:09;101298.50;;;14.50;37.36
47761;BME280;33524;55.434;38.520;2022-09-09T11:19:41;101300.59;;;14.09;40.67
47761;BME280;33524;55.434;38.520;2022-09-09T11:27:36;101301.53;;;14.81;39.78
47761;BME280;33524;55.434;38.520;2022-09-09T11:41:20;101294.84;;;15.56;38.73
47761;BME280;33524;55.434;38.520;2022-09-09T11:43:52;101297.25;;;14.56;39.84
47761;BME280;33524;55.434;38.520;2022-09-09T11:46:22;101301.34;;;14.47;41.56
47761;BME280;33524;55.434;38.520;2022-09-09T11:49:04;101301.19;;;13.52;40.60
47761;BME280;33524;55.434;38.520;2022-09-09T11:51:33;101299.81;;;12.42;41.96
47761;BME280;33524;55.434;38.520;2022-09-09T11:54:32;101304.31;;;12.93;55.89
47761;BME280;33524;55.434;38.520;2022-09-09T11:57:14;101306.59;;;12.05;43.85
47761;BME280;33524;55.434;38.520;2022-09-09T11:59:51;101311.56;;;11.68;45.15
47761;BME280;33524;55.434;38.520;2022-09-09T12:02:25;101308.53;;;11.74;45.63
47761;BME280;33524;55.434;38.520;2022-09-09T12:07:39;101303.41;;;14.43;40.50
47761;BME280;33524;55.434;38.520;2022-09-09T12:10:31;101288.81;;;15.20;39.49
47761;BME280;33524;55.434;38.520;2022-09-09T12:13:24;101290.94;;;14.81;39.88
47761;BME280;33524;55.434;38.520;2022-09-09T12:16:00;101296.72;;;14.26;40.86
47761;BME280;33524;55.434;38.520;2022-09-09T12:18:35;101297.38;;;13.56;40.69
47761;BME280;33524;55.434;38.520;2022-09-09T12:21:38;101313.47;;;12.62;42.15
47761;BME280;33524;55.434;38.520;2022-09-09T12:24:11;101296.03;;;13.38;43.20
47761;BME280;33524;55.434;38.520;2022-09-09T12:26:49;101292.59;;;13.23;42.31
47761;BME280;33524;55.434;38.520;2022-09-09T12:32:17;101279.19;;;15.30;35.58
47761;BME280;33524;55.434;38.520;2022-09-09T12:34:48;101272.47;;;17.20;33.74
47761;BME280;33524;55.434;38.520;2022-09-09T12:37:27;101276.72;;;18.42;31.44
47761;BME280;33524;55.434;38.520;2022-09-09T12:39:58;101273.87;;;18.53;30.76
47761;BME280;33524;55.434;38.520;2022-09-09T12:42:29;101277.34;;;15.98;33.02
47761;BME280;33524;55.434;38.520;2022-09-09T12:45:00;101281.34;;;14.56;38.24
47761;BME280;33524;55.434;38.520;2022-09-09T12:47:38;101283.72;;;13.24;37.40
47761;BME280;33524;55.434;38.520;2022-09-09T12:50:26;101287.03;;;13.27;39.33
47761;BME280;33524;55.434;38.520;2022-09-09T12:52:59;101292.09;;;13.05;40.19
47761;BME280;33524;55.434;38.520;2022-09-09T12:55:31;101277.47;;;14.95;36.86
47761;BME280;33524;55.434;38.520;2022-09-09T12:58:02;101278.84;;;16.12;31.93
47761;BME280;33524;55.434;38.520;2022-09-09T13:00:34;101277.69;;;16.79;31.99
47761;BME280;33524;55.434;38.520;2022-09-09T13:03:16;101258.69;;;18.93;29.32
47761;BME280;33524;55.434;38.520;2022-09-09T13:05:44;101265.56;;;19.70;27.83
47761;BME280;33524;55.434;38.520;2022-09-09T13:08:15;101257.44;;;21.48;26.55
47761;BME280;33524;55.434;38.520;2022-09-09T13:13:40;101252.53;;;22.93;23.76
47761;BME280;33524;55.434;38.520;2022-09-09T13:18:50;101274.88;;;19.56;27.19
47761;BME280;33524;55.434;38.520;2022-09-09T13:21:19;101267.72;;;18.04;30.33
47761;BME280;33524;55.434;38.520;2022-09-09T13:23:50;101283.44;;;17.57;31.86
47761;BME280;33524;55.434;38.520;2022-09-09T13:26:27;101276.84;;;16.58;32.67
47761;BME280;33524;55.434;38.520;2022-09-09T13:28:55;101288.38;;;14.79;35.76
47761;BME280;33524;55.434;38.520;2022-09-09T13:31:36;101279.91;;;13.53;38.32
47761;BME280;33524;55.434;38.520;2022-09-09T13:34:26;101290.44;;;13.79;38.72
47761;BME280;33524;55.434;38.520;2022-09-09T13:37:03;101284.75;;;13.60;39.15
47761;BME280;33524;55.434;38.520;2022-09-09T13:39:36;101291.50;;;12.61;40.51
47761;BME280;33524;55.434;38.520;2022-09-09T13:42:05;101288.38;;;12.42;41.78
47761;BME280;33524;55.434;38.520;2022-09-09T13:44:37;101293.63;;;12.69;42.49
47761;BME280;33524;55.434;38.520;2022-09-09T13:49:40;101295.16;;;11.05;44.74
47761;BME280;33524;55.434;38.520;2022-09-09T13:52:14;101295.00;;;11.23;45.94
47761;BME280;33524;55.434;38.520;2022-09-09T13:54:51;101288.97;;;10.92;45.63
47761;BME280;33524;55.434;38.520;2022-09-09T13:57:22;101293.31;;;10.63;46.50
47761;BME280;33524;55.434;38.520;2022-09-09T13:59:53;101292.19;;;10.67;46.94
47761;BME280;33524;55.434;38.520;2022-09-09T14:02:37;101284.09;;;12.54;42.92
47761;BME280;33524;55.434;38.520;2022-09-09T14:05:06;101273.03;;;15.18;37.65
47761;BME280;33524;55.434;38.520;2022-09-09T14:07:34;101271.69;;;16.56;33.64
47761;BME280;33524;55.434;38.520;2022-09-09T14:10:02;101281.13;;;16.49;33.34
47761;BME280;33524;55.434;38.520;2022-09-09T14:12:30;101269.84;;;18.01;31.10
47761;BME280;33524;55.434;38.520;2022-09-09T14:14:58;101266.41;;;18.96;29.58
47761;BME280;33524;55.434;38.520;2022-09-09T14:17:29;101269.97;;;18.67;30.09
47761;BME280;33524;55.434;38.520;2022-09-09T14:19:58;101273.69;;;19.69;28.56
47761;BME280;33524;55.434;38.520;2022-09-09T14:22:25;101263.53;;;21.06;26.81
47761;BME280;33524;55.434;38.520;2022-09-09T14:24:54;101258.59;;;21.46;26.40
47761;BME280;33524;55.434;38.520;2022-09-09T14:27:21;101261.16;;;21.64;25.74
47761;BME280;33524;55.434;38.520;2022-09-09T14:29:49;101271.03;;;21.63;25.64
47761;BME280;33524;55.434;38.520;2022-09-09T14:32:17;101270.97;;;21.21;25.89
47761;BME280;33524;55.434;38.520;2022-09-09T14:34:45;101278.31;;;19.77;26.48
47761;BME280;33524;55.434;38.520;2022-09-09T14:37:13;101267.50;;;20.94;25.84
47761;BME280;33524;55.434;38.520;2022-09-09T14:39:41;101279.56;;;20.18;26.09
47761;BME280;33524;55.434;38.520;2022-09-09T14:42:11;101272.81;;;20.86;25.34
47761;BME280;33524;55.434;38.520;2022-09-09T14:44:39;101279.66;;;19.53;27.37
47761;BME280;33524;55.434;38.520;2022-09-09T14:47:08;101281.03;;;17.94;29.17
47761;BME280;33524;55.434;38.520;2022-09-09T14:49:37;101287.97;;;16.84;31.93
47761;BME280;33524;55.434;38.520;2022-09-09T14:52:09;101279.69;;;17.29;31.49
47761;BME280;33524;55.434;38.520;2022-09-09T14:54:37;101285.47;;;16.50;31.93
47761;BME280;33524;55.434;38.520;2022-09-09T14:57:04;101295.09;;;15.52;33.58